Time;durP1;ratioP1;P1;durP2;ratioP2;P2;SDS_P1;SDS_P2;PMS_P1;PMS_P2;Temp;Humidity;BMP_temperature;BMP_pressure;BME280_temperature;BME280_humidity;BME280_pressure;Samples;Min_cycle;Max_cycle;Signal;HPM_P1;HPM_P2
2022/05/31 00:00:32;;;;;;;1.20;0.50;;;12.60;86.10;;;;;;4830063;29;20060;-87
2022/05/31 00:02:59;;;;;;;1.63;0.28;;;12.50;86.10;;;;;;4825843;29;20117;-87
2022/05/31 00:05:25;;;;;;;2.92;0.70;;;12.80;86.30;;;;;;4821852;29;20122;-87
2022/05/31 00:07:52;;;;;;;1.52;0.32;;;12.50;86.20;;;;;;4822392;29;20068;-87
2022/05/31 00:10:20;;;;;;;0.70;0.30;;;12.50;86.40;;;;;;4816028;29;20046;-87
2022/05/31 00:12:47;;;;;;;0.90;0.30;;;12.50;86.20;;;;;;4823338;29;20026;-88
2022/05/31 00:15:14;;;;;;;2.28;0.47;;;12.40;86.50;;;;;;4821777;29;20472;-87
2022/05/31 00:17:41;;;;;;;0.98;0.40;;;12.40;86.80;;;;;;4819928;29;20033;-87
2022/05/31 00:20:10;;;;;;;1.00;0.40;;;12.40;86.90;;;;;;4820450;29;20038;-89
2022/05/31 00:22:36;;;;;;;1.33;0.32;;;12.40;87.10;;;;;;4821722;29;20044;-88
2022/05/31 00:25:10;;;;;;;1.67;0.73;;;12.30;86.80;;;;;;4816126;29;20039;-88
2022/05/31 00:27:36;;;;;;;1.40;0.40;;;12.30;87.10;;;;;;4817169;29;20121;-87
2022/05/31 00:30:02;;;;;;;1.67;0.40;;;12.30;87.00;;;;;;4819010;29;20230;-88
2022/05/31 00:32:31;;;;;;;0.70;0.40;;;12.30;87.00;;;;;;4821729;29;20035;-87
2022/05/31 00:35:14;;;;;;;0.90;0.30;;;12.30;87.30;;;;;;4819100;29;20031;-87
2022/05/31 00:37:40;;;;;;;2.03;0.30;;;12.30;87.90;;;;;;4797224;29;20045;-87
2022/05/31 00:40:07;;;;;;;1.67;0.43;;;12.10;88.10;;;;;;4818776;29;20042;-88
2022/05/31 00:42:57;;;;;;;0.65;0.30;;;12.20;88.50;;;;;;4819354;29;20026;-88
2022/05/31 00:45:31;;;;;;;0.50;0.20;;;12.20;88.90;;;;;;4813709;29;20496;-87
2022/05/31 00:47:57;;;;;;;2.75;0.50;;;12.10;89.60;;;;;;4819124;29;20501;-87
2022/05/31 00:50:30;;;;;;;2.78;0.40;;;12.10;89.60;;;;;;4814480;29;20035;-87
2022/05/31 00:53:01;;;;;;;1.30;0.50;;;12.00;90.00;;;;;;4818884;29;20030;-87
2022/05/31 00:55:33;;;;;;;0.98;0.40;;;12.00;89.80;;;;;;4819220;29;20042;-88
2022/05/31 00:58:09;;;;;;;2.58;0.40;;;11.90;90.20;;;;;;4819860;29;20047;-87
2022/05/31 01:00:36;;;;;;;1.17;0.40;;;11.90;90.30;;;;;;4818251;29;20474;-87
2022/05/31 01:03:04;;;;;;;0.57;0.30;;;11.80;90.50;;;;;;4829887;29;20099;-88
2022/05/31 01:05:29;;;;;;;1.08;0.40;;;11.80;90.70;;;;;;4819799;29;20514;-87
2022/05/31 01:07:55;;;;;;;2.45;0.40;;;11.70;90.80;;;;;;4817218;29;20030;-87
2022/05/31 01:10:21;;;;;;;2.00;0.32;;;11.70;90.70;;;;;;4818427;29;20117;-87
2022/05/31 01:12:49;;;;;;;0.95;0.40;;;11.70;91.20;;;;;;4821067;29;20027;-87
2022/05/31 01:15:17;;;;;;;0.77;0.30;;;12.00;91.00;;;;;;4820533;29;20137;-87
2022/05/31 01:17:45;;;;;;;0.85;0.30;;;11.60;91.10;;;;;;4820852;29;20033;-87
2022/05/31 01:20:13;;;;;;;0.85;0.40;;;11.60;91.20;;;;;;4819686;29;20030;-88
2022/05/31 01:22:40;;;;;;;0.82;0.30;;;11.60;91.50;;;;;;4811060;29;20518;-89
2022/05/31 01:25:17;;;;;;;1.20;0.40;;;11.90;91.70;;;;;;4817546;29;20378;-88
2022/05/31 01:28:20;;;;;;;0.95;0.38;;;11.50;91.70;;;;;;4826787;29;20026;-87
2022/05/31 01:31:05;;;;;;;1.67;0.70;;;11.50;91.80;;;;;;4826454;29;20150;-86
2022/05/31 01:33:44;;;;;;;0.90;0.30;;;11.40;91.90;;;;;;4811522;29;20058;-87
2022/05/31 01:36:17;;;;;;;1.08;0.30;;;11.40;92.00;;;;;;4818407;29;20090;-86
2022/05/31 01:38:54;;;;;;;1.13;0.43;;;11.30;92.00;;;;;;4816430;29;20079;-87
2022/05/31 01:41:29;;;;;;;1.13;0.40;;;11.20;92.20;;;;;;4821621;29;20046;-87
2022/05/31 01:43:57;;;;;;;1.10;0.40;;;12.10;92.40;;;;;;4817216;29;20629;-87
2022/05/31 01:46:28;;;;;;;1.23;0.40;;;11.60;92.40;;;;;;5002998;24;20106;-89
2022/05/31 01:48:56;;;;;;;1.75;0.38;;;10.90;92.40;;;;;;4833232;29;20087;-89
2022/05/31 01:51:28;;;;;;;3.58;0.40;;;11.40;92.30;;;;;;4840742;29;20030;-89
2022/05/31 01:53:57;;;;;;;1.05;0.45;;;11.50;92.70;;;;;;4838858;29;20042;-89
2022/05/31 01:56:23;;;;;;;1.92;0.43;;;12.30;92.60;;;;;;4834605;29;20038;-89
2022/05/31 01:58:54;;;;;;;1.45;0.40;;;11.30;92.40;;;;;;4835275;29;20575;-89
2022/05/31 02:01:21;;;;;;;1.90;0.50;;;11.90;92.70;;;;;;4835911;29;20030;-89
2022/05/31 02:03:52;;;;;;;0.60;0.30;;;11.10;92.90;;;;;;4844005;29;20037;-89
2022/05/31 02:06:31;;;;;;;1.77;0.40;;;11.80;93.40;;;;;;4838190;29;20820;-90
2022/05/31 02:09:03;;;;;;;2.28;0.30;;;11.20;93.30;;;;;;4846476;29;20042;-89
2022/05/31 02:11:29;;;;;;;1.30;0.30;;;11.20;93.30;;;;;;4840662;29;20731;-89
2022/05/31 02:14:03;;;;;;;1.77;0.57;;;11.60;93.40;;;;;;4843214;29;20043;-90
2022/05/31 02:16:32;;;;;;;1.45;0.52;;;11.30;93.50;;;;;;4855263;29;20034;-89
2022/05/31 02:19:23;;;;;;;1.08;0.43;;;10.60;93.70;;;;;;4844900;29;20117;-89
2022/05/31 02:21:50;;;;;;;5.68;0.98;;;11.00;94.00;;;;;;4839624;29;20099;-88
2022/05/31 02:24:16;;;;;;;1.15;0.40;;;11.00;93.90;;;;;;4833300;29;20523;-89
2022/05/31 02:26:54;;;;;;;1.67;0.50;;;11.40;94.20;;;;;;4834489;29;20038;-90
2022/05/31 02:29:24;;;;;;;1.80;0.60;;;11.20;94.20;;;;;;4831254;29;20063;-89
2022/05/31 02:31:56;;;;;;;1.88;0.60;;;11.00;94.40;;;;;;4835063;29;20038;-90
2022/05/31 02:34:26;;;;;;;;;;;11.50;94.50;;;;;;4829911;29;20125;-90
2022/05/31 02:36:55;;;;;;;1.27;0.50;;;11.10;94.60;;;;;;4834845;29;19916;-89
2022/05/31 02:39:26;;;;;;;2.25;0.70;;;11.00;94.60;;;;;;4828528;29;20496;-90
2022/05/31 02:42:00;;;;;;;1.73;0.60;;;10.30;94.60;;;;;;4834965;29;20057;-90
2022/05/31 02:44:31;;;;;;;3.55;0.50;;;10.90;94.40;;;;;;4828254;29;20519;-90
2022/05/31 02:46:57;;;;;;;1.83;0.70;;;10.70;94.40;;;;;;4832508;29;20102;-91
2022/05/31 02:49:25;;;;;;;2.40;0.70;;;11.50;94.70;;;;;;4832888;29;20507;-91
2022/05/31 02:51:57;;;;;;;1.35;0.63;;;10.70;94.50;;;;;;4830469;29;20038;-90
2022/05/31 03:07:19;;;;;;;1.50;0.60;;;10.70;95.70;;;;;;3790141;23;4659977;-89
2022/05/31 03:09:50;;;;;;;1.50;0.50;;;10.50;96.20;;;;;;4839934;29;20480;-90
2022/05/31 03:12:27;;;;;;;1.17;0.50;;;10.50;95.90;;;;;;4838229;29;20512;-90
2022/05/31 03:15:03;;;;;;;1.38;0.50;;;10.60;95.80;;;;;;4832806;29;20480;-91
2022/05/31 03:17:53;;;;;;;1.25;0.52;;;11.20;96.10;;;;;;4829493;29;20033;-91
2022/05/31 03:20:45;;;;;;;1.70;0.85;;;10.50;96.00;;;;;;4830203;29;20496;-90
2022/05/31 03:23:35;;;;;;;0.52;0.30;;;10.50;96.30;;;;;;4827536;29;20652;-90
2022/05/31 03:26:08;;;;;;;2.15;0.80;;;10.80;96.30;;;;;;4848479;24;20058;-89
2022/05/31 03:28:52;;;;;;;1.67;0.52;;;10.50;96.50;;;;;;4837371;29;20032;-90
2022/05/31 03:31:21;;;;;;;2.45;0.63;;;10.40;96.60;;;;;;4833445;29;20048;-91
2022/05/31 03:34:57;;;;;;;1.75;0.40;;;10.00;96.70;;;;;;4834262;29;20125;-89
2022/05/31 03:37:30;;;;;;;1.42;0.50;;;10.50;96.60;;;;;;4808305;29;20067;-90
2022/05/31 03:40:06;;;;;;;1.85;0.50;;;10.30;96.70;;;;;;4824911;29;20027;-90
2022/05/31 03:42:51;;;;;;;2.13;0.50;;;10.70;96.90;;;;;;4816777;29;20148;-89
2022/05/31 03:45:22;;;;;;;0.90;0.50;;;10.60;96.90;;;;;;4818955;29;20041;-90
2022/05/31 03:47:48;;;;;;;1.30;0.50;;;10.60;97.10;;;;;;4822611;29;20034;-90
2022/05/31 03:50:14;;;;;;;1.23;0.50;;;10.60;97.10;;;;;;4823381;29;20412;-90
2022/05/31 03:52:46;;;;;;;1.77;0.50;;;10.60;97.20;;;;;;4809893;29;20495;-90
2022/05/31 03:57:53;;;;;;;1.88;0.60;;;10.60;97.10;;;;;;4868042;23;20053;-90
2022/05/31 04:00:36;;;;;;;1.08;0.40;;;10.60;97.30;;;;;;4840554;29;20106;-90
2022/05/31 04:03:18;;;;;;;1.00;0.50;;;10.70;97.40;;;;;;4831874;29;20049;-90
2022/05/31 04:05:55;;;;;;;1.13;0.50;;;10.90;97.50;;;;;;4839363;29;20034;-90
2022/05/31 04:08:30;;;;;;;1.60;0.57;;;11.10;97.60;;;;;;4833082;29;20039;-90
2022/05/31 04:11:13;;;;;;;1.10;0.50;;;10.70;97.70;;;;;;4841075;29;20046;-89
2022/05/31 04:13:46;;;;;;;2.75;0.80;;;11.20;98.00;;;;;;4836324;29;20049;-90
2022/05/31 04:16:19;;;;;;;1.70;0.50;;;10.60;98.10;;;;;;4837441;29;20030;-88
2022/05/31 04:18:51;;;;;;;1.85;0.60;;;10.70;98.00;;;;;;4845328;29;20030;-90
2022/05/31 04:21:17;;;;;;;1.60;0.77;;;10.10;97.80;;;;;;4845431;29;20050;-90
2022/05/31 04:24:02;;;;;;;1.38;0.57;;;11.20;98.40;;;;;;4845457;29;20044;-90
2022/05/31 04:26:53;;;;;;;1.20;0.50;;;10.70;98.20;;;;;;4848474;24;20041;-90
2022/05/31 04:29:51;;;;;;;1.00;0.50;;;10.60;98.00;;;;;;4833181;29;20068;-89
2022/05/31 04:32:25;;;;;;;1.80;0.60;;;10.60;97.90;;;;;;4850610;29;20108;-90
2022/05/31 05:49:49;;;;;;;1.30;0.60;;;13.10;95.20;;;;;;4832973;29;20047;-88
2022/05/31 05:52:17;;;;;;;2.13;0.70;;;13.30;95.30;;;;;;4827922;29;20027;-88
2022/05/31 06:02:59;;;;;;;1.58;0.50;;;12.80;95.90;;;;;;4782763;29;20118;-88
2022/05/31 06:06:05;;;;;;;2.78;0.88;;;12.60;96.30;;;;;;4741709;30;20028;-89
2022/05/31 06:09:20;;;;;;;1.48;0.73;;;12.70;96.90;;;;;;4800151;29;20541;-89
2022/05/31 06:12:03;;;;;;;1.45;0.63;;;12.50;96.30;;;;;;4841723;29;20049;-89
2022/05/31 06:24:50;;;;;;;1.80;0.77;;;12.70;97.00;;;;;;4842325;29;20477;-89
2022/05/31 06:28:10;;;;;;;2.00;0.90;;;12.60;97.20;;;;;;4838531;29;20505;-90
2022/05/31 06:31:23;;;;;;;1.85;0.70;;;12.80;97.50;;;;;;4860649;29;20049;-90
2022/05/31 06:41:36;;;;;;;;;;;;;;;;;;;;;
2022/05/31 06:44:44;;;;;;;2.08;0.77;;;13.60;97.30;;;;;;4808558;29;20115;-90
2022/05/31 06:48:06;;;;;;;2.13;0.80;;;14.10;96.30;;;;;;4786750;29;20047;-91
2022/05/31 06:50:54;;;;;;;0.80;0.50;;;14.00;96.70;;;;;;4794734;29;20264;-90
2022/05/31 07:45:08;;;;;;;2.20;0.70;;;17.40;93.10;;;;;;5666792;24;20088;-89
2022/05/31 07:47:33;;;;;;;1.20;0.40;;;17.70;93.00;;;;;;4838861;29;20574;-89
2022/05/31 07:49:59;;;;;;;2.55;0.80;;;17.30;93.00;;;;;;4839449;29;20030;-89
2022/05/31 07:52:25;;;;;;;0.93;0.40;;;17.10;93.20;;;;;;4840280;29;20448;-89
2022/05/31 07:54:51;;;;;;;1.33;0.60;;;17.20;93.70;;;;;;4838244;29;20563;-89
2022/05/31 08:00:01;;;;;;;1.13;0.40;;;17.60;93.30;;;;;;4836796;29;20078;-89
2022/05/31 08:02:35;;;;;;;2.53;0.75;;;17.70;93.10;;;;;;4837588;29;20410;-89
2022/05/31 08:05:04;;;;;;;2.05;0.70;;;17.50;91.80;;;;;;4832915;29;20033;-89
2022/05/31 08:07:29;;;;;;;1.25;0.50;;;18.00;91.70;;;;;;4838979;29;20034;-90
2022/05/31 08:10:01;;;;;;;1.95;0.40;;;18.20;91.60;;;;;;4836905;29;20033;-89
2022/05/31 08:12:27;;;;;;;1.00;0.30;;;18.10;91.10;;;;;;4839008;29;20030;-90
2022/05/31 08:15:04;;;;;;;1.25;0.50;;;18.30;91.60;;;;;;4830506;29;20547;-89
2022/05/31 08:17:35;;;;;;;2.70;0.80;;;18.40;90.90;;;;;;4836150;29;20483;-89
2022/05/31 08:20:06;;;;;;;2.17;0.40;;;18.70;90.80;;;;;;4838979;29;20287;-90
2022/05/31 08:22:37;;;;;;;1.73;0.57;;;18.20;90.90;;;;;;4837394;29;20030;-89
2022/05/31 08:25:03;;;;;;;0.80;0.40;;;18.50;90.90;;;;;;4829596;29;20026;-89
2022/05/31 08:27:45;;;;;;;0.80;0.30;;;18.40;90.90;;;;;;4836470;29;20034;-88
2022/05/31 08:30:25;;;;;;;0.95;0.40;;;18.70;90.50;;;;;;4835002;29;20026;-89
2022/05/31 08:32:51;;;;;;;1.15;0.30;;;18.90;90.60;;;;;;4838627;29;20049;-89
2022/05/31 08:35:19;;;;;;;1.10;0.30;;;19.50;90.70;;;;;;4838694;29;20026;-89
2022/05/31 08:37:45;;;;;;;1.35;0.50;;;18.80;89.70;;;;;;4835163;29;20069;-90
2022/05/31 08:40:17;;;;;;;1.02;0.30;;;18.80;90.90;;;;;;4838750;29;20694;-89
2022/05/31 08:42:58;;;;;;;1.52;0.50;;;18.80;90.40;;;;;;4837316;29;20026;-89
2022/05/31 08:45:32;;;;;;;1.17;0.40;;;18.80;88.30;;;;;;4832500;29;20034;-89
2022/05/31 08:48:39;;;;;;;1.10;0.30;;;18.60;89.10;;;;;;4833059;29;20038;-89
2022/05/31 08:57:06;;;;;;;0.70;0.40;;;19.60;89.00;;;;;;4839588;29;20510;-89
2022/05/31 09:00:02;;;;;;;1.52;0.30;;;19.30;88.50;;;;;;4837924;29;20030;-89
2022/05/31 09:03:00;;;;;;;1.05;0.47;;;19.90;88.90;;;;;;4837996;29;20395;-89
2022/05/31 09:05:40;;;;;;;1.13;0.30;;;20.20;88.10;;;;;;4836492;29;20042;-89
2022/05/31 09:08:18;;;;;;;1.05;0.40;;;20.40;86.90;;;;;;4857223;29;20033;-89
2022/05/31 09:10:57;;;;;;;2.15;0.50;;;20.60;86.20;;;;;;4840257;29;20029;-89
2022/05/31 09:13:38;;;;;;;1.67;0.30;;;20.90;85.00;;;;;;4837013;29;20038;-90
2022/05/31 09:16:33;;;;;;;0.57;0.30;;;21.10;85.80;;;;;;4839825;29;20050;-90
2022/05/31 09:19:07;;;;;;;2.22;0.73;;;20.90;84.60;;;;;;4839014;29;20034;-89
2022/05/31 09:21:48;;;;;;;1.20;0.57;;;20.70;84.90;;;;;;4836248;29;20034;-90
2022/05/31 09:24:46;;;;;;;2.35;0.55;;;20.80;84.70;;;;;;4843261;29;20053;-89
2022/05/31 09:27:44;;;;;;;0.65;0.30;;;21.00;85.10;;;;;;4837766;29;20065;-90
2022/05/31 09:30:45;;;;;;;1.05;0.30;;;20.80;84.00;;;;;;4836727;29;20503;-89
2022/05/31 09:33:37;;;;;;;0.63;0.25;;;21.00;85.00;;;;;;4835122;29;20661;-89
2022/05/31 09:40:03;;;;;;;0.90;0.35;;;21.10;82.40;;;;;;4846591;29;20037;-89
2022/05/31 09:46:34;;;;;;;0.50;0.30;;;21.20;82.00;;;;;;4840505;29;20477;-89
2022/05/31 09:49:53;;;;;;;1.45;0.30;;;21.30;81.10;;;;;;4841173;29;20022;-89
2022/05/31 09:52:34;;;;;;;0.77;0.35;;;21.40;80.90;;;;;;4835547;29;20038;-89
2022/05/31 09:58:42;;;;;;;1.00;0.28;;;21.50;81.00;;;;;;4841960;29;19928;-90
2022/05/31 10:02:29;;;;;;;1.02;0.30;;;21.80;79.30;;;;;;4837649;29;20054;-89
2022/05/31 10:04:37;;;;;;;1.02;0.30;;;22.10;77.90;;;;;;4838348;29;20061;-90
2022/05/31 10:08:08;;;;;;;;;;;;;;;;;;;;;
2022/05/31 10:10:43;;;;;;;0.82;0.32;;;22.30;77.30;;;;;;4855888;29;20106;-89
2022/05/31 10:13:45;;;;;;;1.42;0.82;;;22.80;75.70;;;;;;4856313;29;20034;-90
2022/05/31 10:16:37;;;;;;;3.50;0.60;;;23.20;74.00;;;;;;4864033;29;20061;-90
2022/05/31 10:19:48;;;;;;;0.85;0.30;;;23.60;74.10;;;;;;4860610;29;20018;-90
2022/05/31 10:22:17;;;;;;;0.50;0.28;;;23.80;73.30;;;;;;4853466;29;20040;-89
2022/05/31 10:25:03;;;;;;;2.25;0.20;;;23.80;73.10;;;;;;4857092;29;20034;-89
2022/05/31 10:27:31;;;;;;;2.38;0.38;;;23.30;74.20;;;;;;4840087;29;20045;-89
2022/05/31 10:30:06;;;;;;;0.98;0.32;;;23.10;74.50;;;;;;4829736;29;20027;-89
2022/05/31 10:32:57;;;;;;;0.80;0.30;;;23.30;73.50;;;;;;4841653;29;20098;-89
2022/05/31 10:35:46;;;;;;;;;;;23.40;73.90;;;;;;4838473;29;20407;-89
2022/05/31 10:38:21;;;;;;;0.88;0.30;;;23.50;72.70;;;;;;4831316;29;20444;-89
2022/05/31 10:41:00;;;;;;;0.52;0.20;;;23.00;67.20;;;;;;4840912;29;20116;-89
2022/05/31 10:44:16;;;;;;;2.40;0.35;;;22.90;68.70;;;;;;4840425;29;20022;-89
2022/05/31 10:50:18;;;;;;;0.70;0.25;;;22.90;65.60;;;;;;4833431;29;20057;-89
2022/05/31 10:53:30;;;;;;;0.40;0.20;;;23.60;66.00;;;;;;4837755;29;20042;-89
2022/05/31 10:56:25;;;;;;;1.23;0.55;;;24.00;67.80;;;;;;4847376;29;20102;-89
2022/05/31 10:59:32;;;;;;;1.00;0.30;;;23.90;69.40;;;;;;4836484;29;20229;-90
2022/05/31 11:02:26;;;;;;;1.40;0.40;;;23.20;70.00;;;;;;4840911;29;20174;-90
2022/05/31 11:05:21;;;;;;;0.93;0.30;;;23.20;73.60;;;;;;4835656;29;20067;-90
2022/05/31 11:11:33;;;;;;;1.98;0.68;;;22.00;73.30;;;;;;4838122;29;20045;-90
2022/05/31 11:14:18;;;;;;;1.17;0.40;;;23.40;73.30;;;;;;4838341;29;20046;-90
2022/05/31 11:17:21;;;;;;;0.80;0.60;;;23.90;74.60;;;;;;4839901;29;20107;-90
2022/05/31 11:20:18;;;;;;;1.13;0.50;;;24.10;71.80;;;;;;4837782;29;20034;-89
2022/05/31 11:23:09;;;;;;;9.13;1.15;;;24.80;72.30;;;;;;4821047;29;20087;-90
2022/05/31 11:25:55;;;;;;;;;;;25.00;71.10;;;;;;4837707;29;20395;-90
2022/05/31 11:28:49;;;;;;;2.40;0.50;;;24.90;68.70;;;;;;4839272;29;20022;-90
2022/05/31 11:31:33;;;;;;;1.52;0.60;;;24.80;69.70;;;;;;4833543;29;20034;-90
2022/05/31 11:34:44;;;;;;;1.90;0.63;;;24.70;70.20;;;;;;4837582;29;20037;-90
2022/05/31 11:37:56;;;;;;;2.63;0.95;;;24.70;68.70;;;;;;4845062;29;20783;-90
2022/05/31 11:57:46;;;;;;;2.70;0.60;;;24.10;69.70;;;;;;4840379;29;20106;-89
2022/05/31 12:01:04;;;;;;;2.13;0.40;;;24.80;68.10;;;;;;4840701;29;20030;-90
2022/05/31 12:03:55;;;;;;;1.10;0.47;;;24.80;67.10;;;;;;4837372;29;20022;-89
2022/05/31 12:06:40;;;;;;;1.10;0.35;;;25.20;66.90;;;;;;4840154;29;20498;-90
2022/05/31 12:09:34;;;;;;;0.98;0.55;;;25.00;65.70;;;;;;4839594;29;20034;-90
2022/05/31 12:12:39;;;;;;;1.13;0.43;;;24.80;65.80;;;;;;4835148;29;20045;-89
2022/05/31 12:15:43;;;;;;;1.65;0.45;;;24.50;66.60;;;;;;4822022;29;20046;-90
2022/05/31 12:34:20;;;;;;;;;;;;;;;;;;;;;
2022/05/31 12:37:13;;;;;;;2.25;0.40;;;23.90;66.30;;;;;;4825131;29;20595;-88
2022/05/31 12:40:21;;;;;;;;;;;;;;;;;;;;;
2022/05/31 12:42:50;;;;;;;1.42;0.40;;;24.80;66.10;;;;;;4818337;29;20041;-88
2022/05/31 12:46:13;;;;;;;0.70;0.30;;;23.60;66.10;;;;;;4818697;29;20025;-88
2022/05/31 12:49:30;;;;;;;1.65;0.30;;;25.10;66.40;;;;;;4832918;29;20509;-88
2022/05/31 12:52:32;;;;;;;0.70;0.30;;;24.50;64.90;;;;;;4840600;29;20514;-88
2022/05/31 12:55:21;;;;;;;2.17;0.40;;;25.30;65.80;;;;;;4830840;29;20041;-89
2022/05/31 12:58:36;;;;;;;1.90;0.30;;;24.80;63.70;;;;;;4828685;29;20193;-87
2022/05/31 13:08:56;;;;;;;1.40;0.30;;;25.20;60.60;;;;;;4815249;29;20558;-88
2022/05/31 16:02:11;;;;;;;;;;;;;;;;;;;;;
2022/05/31 16:07:53;;;;;;;0.55;0.28;;;21.00;63.10;;;;;;4798934;29;20057;-88
2022/05/31 16:10:22;;;;;;;1.65;0.30;;;20.40;62.90;;;;;;4799372;29;20058;-91
2022/05/31 16:12:58;;;;;;;1.42;0.40;;;21.10;63.50;;;;;;4796953;29;20043;-91
2022/05/31 16:15:51;;;;;;;2.08;0.30;;;20.70;63.20;;;;;;4800986;29;20059;-94
2022/05/31 16:18:50;;;;;;;2.20;0.50;;;21.20;65.80;;;;;;4797759;29;20031;-93
2022/05/31 16:21:52;;;;;;;1.15;0.30;;;20.90;64.60;;;;;;4796320;29;20120;-93
2022/05/31 16:25:05;;;;;;;;;;;;;;;;;;;;;
2022/05/31 16:27:45;;;;;;;0.70;0.25;;;21.30;63.60;;;;;;4799619;29;20039;-92
2022/05/31 16:30:16;;;;;;;1.52;0.35;;;21.30;63.50;;;;;;4801050;29;20031;-92
2022/05/31 16:33:00;;;;;;;2.13;0.30;;;21.20;64.10;;;;;;4800509;29;20106;-92
2022/05/31 16:35:30;;;;;;;2.80;0.40;;;21.10;62.80;;;;;;4812848;29;20080;-92
2022/05/31 16:45:13;;;;;;;1.70;0.50;;;21.20;65.00;;;;;;4840971;29;20037;-93
2022/05/31 16:48:40;;;;;;;;;;;;;;;;;;;;;
2022/05/31 16:51:44;;;;;;;1.25;0.30;;;21.10;64.80;;;;;;4845366;29;20037;-94
2022/05/31 19:40:10;;;;;;;2.05;0.65;;;18.20;91.90;;;;;;4828661;29;20461;-88
2022/05/31 19:46:15;;;;;;;4.75;0.50;;;17.20;91.60;;;;;;4825321;29;20041;-87
2022/05/31 20:23:24;;;;;;;1.30;0.60;;;16.70;91.60;;;;;;2922983;27;20422;-89
2022/05/31 20:26:02;;;;;;;2.78;0.60;;;16.70;92.00;;;;;;4831270;29;20056;-89
2022/05/31 20:28:52;;;;;;;1.85;0.60;;;16.60;93.00;;;;;;4826091;29;20449;-88
2022/05/31 20:31:36;;;;;;;1.63;0.47;;;16.50;93.30;;;;;;4839149;29;20054;-88
2022/05/31 20:34:27;;;;;;;;;;;;;;;;;;;;;
2022/05/31 20:40:47;;;;;;;1.25;0.60;;;16.30;93.40;;;;;;4848325;29;20044;-89
2022/05/31 20:43:21;;;;;;;1.10;0.60;;;16.60;93.70;;;;;;4833570;29;20038;-89
2022/05/31 20:46:17;;;;;;;5.15;0.90;;;16.20;93.50;;;;;;4837900;29;20034;-90
2022/05/31 20:48:53;;;;;;;3.17;0.47;;;15.50;93.00;;;;;;4827726;29;20037;-90
2022/05/31 20:51:40;;;;;;;2.58;0.82;;;16.80;93.40;;;;;;4827430;29;20041;-89
2022/05/31 20:54:16;;;;;;;1.20;0.50;;;17.20;93.60;;;;;;4834132;29;20073;-89
2022/05/31 20:56:42;;;;;;;2.67;0.70;;;16.60;93.80;;;;;;4825062;29;20090;-90
2022/05/31 20:59:10;;;;;;;1.55;0.52;;;16.40;94.60;;;;;;4826798;29;20433;-89
2022/05/31 21:01:37;;;;;;;2.72;1.00;;;16.20;94.40;;;;;;4833175;29;20054;-89
2022/05/31 21:04:03;;;;;;;1.77;0.70;;;16.00;94.40;;;;;;4832379;29;20018;-89
2022/05/31 21:06:38;;;;;;;2.00;0.63;;;16.10;94.90;;;;;;4828906;29;20095;-90
2022/05/31 21:09:15;;;;;;;1.75;0.80;;;16.00;95.30;;;;;;4837502;29;20082;-89
2022/05/31 21:11:43;;;;;;;2.38;0.77;;;15.80;95.40;;;;;;4824541;29;20643;-89
2022/05/31 21:14:14;;;;;;;3.42;0.82;;;15.90;95.60;;;;;;4839373;29;20035;-90
2022/05/31 21:16:45;;;;;;;2.60;0.73;;;15.90;95.80;;;;;;4840226;29;20027;-89
2022/05/31 21:19:14;;;;;;;2.92;0.90;;;15.50;96.00;;;;;;4839794;29;20053;-89
2022/05/31 21:21:41;;;;;;;2.15;0.80;;;15.80;96.40;;;;;;4840566;29;20026;-89
2022/05/31 21:24:08;;;;;;;2.90;0.90;;;15.60;96.40;;;;;;4843078;29;20033;-89
2022/05/31 21:26:36;;;;;;;1.17;0.50;;;15.50;96.60;;;;;;4843743;29;20086;-89
2022/05/31 21:29:13;;;;;;;2.35;0.70;;;15.40;96.90;;;;;;4840341;29;20492;-89
2022/05/31 21:31:38;;;;;;;2.22;0.82;;;15.40;97.20;;;;;;4843045;29;20029;-89
2022/05/31 21:34:05;;;;;;;1.67;0.63;;;15.80;97.50;;;;;;4843374;29;20034;-89
2022/05/31 21:36:33;;;;;;;4.20;1.00;;;15.70;97.80;;;;;;4842035;29;20388;-89
2022/05/31 21:41:43;;;;;;;1.58;0.57;;;15.40;97.90;;;;;;4838475;29;20126;-89
2022/05/31 21:44:08;;;;;;;1.77;0.75;;;15.50;98.20;;;;;;4842427;29;20103;-89
2022/05/31 21:46:34;;;;;;;1.80;0.80;;;15.20;98.20;;;;;;4838099;29;20432;-89
2022/05/31 21:49:06;;;;;;;2.45;0.63;;;15.20;98.20;;;;;;4838667;29;20040;-89
2022/05/31 21:51:35;;;;;;;1.73;0.70;;;15.20;98.40;;;;;;4832845;29;20727;-89
2022/05/31 21:54:18;;;;;;;1.60;0.68;;;15.30;97.80;;;;;;4842118;29;20553;-89
2022/05/31 21:56:54;;;;;;;1.23;0.60;;;15.20;98.00;;;;;;4833622;29;20054;-89
2022/05/31 21:59:29;;;;;;;1.33;0.50;;;15.20;97.70;;;;;;4832350;29;20038;-89
2022/05/31 22:02:08;;;;;;;2.08;0.77;;;15.80;97.90;;;;;;4831564;29;20093;-90
2022/05/31 22:04:38;;;;;;;1.65;0.50;;;15.20;97.90;;;;;;4838283;29;20146;-90
2022/05/31 22:07:05;;;;;;;2.22;0.90;;;16.30;97.90;;;;;;4833399;29;21131;-90
2022/05/31 22:09:33;;;;;;;2.97;0.75;;;15.20;97.60;;;;;;4830838;29;20073;-89
2022/05/31 22:12:03;;;;;;;2.90;0.68;;;15.50;97.60;;;;;;4829280;29;20061;-89
2022/05/31 22:14:34;;;;;;;1.80;0.40;;;15.30;97.60;;;;;;4837308;29;20038;-89
2022/05/31 22:17:08;;;;;;;1.65;0.80;;;15.80;97.70;;;;;;4838515;29;20041;-89
2022/05/31 22:19:37;;;;;;;2.13;0.68;;;15.20;97.90;;;;;;4844219;29;20053;-90
2022/05/31 22:22:09;;;;;;;1.50;0.60;;;15.20;97.60;;;;;;4833309;29;20411;-89
2022/05/31 22:27:28;;;;;;;1.10;0.50;;;15.40;98.10;;;;;;4830220;29;19951;-89
2022/05/31 22:29:53;;;;;;;1.17;0.40;;;15.50;98.30;;;;;;4832518;29;20030;-90
2022/05/31 22:32:19;;;;;;;1.48;0.60;;;15.20;98.00;;;;;;4839237;29;20029;-89
2022/05/31 22:34:44;;;;;;;1.65;0.70;;;15.20;98.10;;;;;;4832375;29;20415;-89
2022/05/31 22:37:14;;;;;;;1.23;0.60;;;15.10;98.20;;;;;;4841211;29;20094;-90
2022/05/31 22:39:41;;;;;;;1.92;0.80;;;15.10;98.30;;;;;;4839901;29;20854;-89
2022/05/31 22:42:11;;;;;;;0.95;0.40;;;14.90;98.40;;;;;;4837225;29;20039;-89
2022/05/31 22:44:36;;;;;;;2.05;0.68;;;15.00;98.70;;;;;;4833306;29;20155;-89
2022/05/31 22:47:05;;;;;;;1.23;0.43;;;15.00;98.80;;;;;;4834727;29;20564;-89
2022/05/31 22:49:31;;;;;;;1.88;0.60;;;14.90;98.90;;;;;;4834760;29;20038;-89
2022/05/31 22:52:01;;;;;;;1.23;0.60;;;14.90;99.10;;;;;;4833092;29;20034;-89
2022/05/31 22:54:27;;;;;;;1.63;0.60;;;14.90;99.30;;;;;;4836887;29;20042;-89
2022/05/31 22:56:56;;;;;;;0.98;0.65;;;14.80;99.60;;;;;;4832343;29;20030;-89
2022/05/31 22:59:27;;;;;;;1.90;0.73;;;14.80;99.50;;;;;;4841786;29;20022;-89
2022/05/31 23:02:00;;;;;;;1.73;0.70;;;14.60;99.50;;;;;;4850099;29;20026;-89
2022/05/31 23:04:38;;;;;;;2.67;0.77;;;14.70;99.40;;;;;;4858337;29;20081;-89
2022/05/31 23:07:07;;;;;;;1.65;0.60;;;14.70;99.50;;;;;;4851189;29;20040;-90
2022/05/31 23:09:34;;;;;;;2.30;0.65;;;14.70;99.40;;;;;;4840547;29;20022;-89
2022/05/31 23:12:08;;;;;;;3.08;0.63;;;14.50;99.30;;;;;;4838369;29;20034;-89
2022/05/31 23:14:43;;;;;;;1.00;0.70;;;14.60;99.20;;;;;;4839538;29;20042;-89
2022/05/31 23:17:11;;;;;;;1.38;0.43;;;14.60;99.40;;;;;;4835126;29;20041;-89
2022/05/31 23:19:36;;;;;;;1.52;0.60;;;14.50;99.50;;;;;;4832596;29;20487;-89
2022/05/31 23:24:55;;;;;;;;;;;14.50;99.80;;;;;;4841891;29;20126;-89
2022/05/31 23:27:22;;;;;;;1.35;0.52;;;14.80;99.70;;;;;;4839873;29;20282;-89
2022/05/31 23:29:48;;;;;;;1.40;0.47;;;14.50;99.80;;;;;;4831336;29;20042;-89
2022/05/31 23:32:19;;;;;;;1.40;0.60;;;14.10;99.30;;;;;;4831503;29;20081;-90
2022/05/31 23:34:55;;;;;;;1.20;0.52;;;14.10;99.10;;;;;;4834680;29;20126;-89
2022/05/31 23:37:20;;;;;;;1.88;0.60;;;13.90;99.40;;;;;;4836313;29;20167;-89
2022/05/31 23:39:46;;;;;;;2.70;0.82;;;14.60;99.90;;;;;;4832721;29;20060;-89
2022/05/31 23:42:15;;;;;;;0.98;0.50;;;14.30;99.90;;;;;;4833723;29;20057;-89
2022/05/31 23:44:41;;;;;;;1.55;0.60;;;14.20;99.90;;;;;;4835391;29;20045;-89
2022/05/31 23:47:11;;;;;;;2.17;0.60;;;14.10;99.90;;;;;;4833895;29;20034;-89
2022/05/31 23:49:37;;;;;;;2.15;0.65;;;15.20;99.90;;;;;;4834852;29;20026;-88
2022/05/31 23:52:07;;;;;;;1.02;0.52;;;14.10;99.90;;;;;;4838438;29;20030;-88
2022/05/31 23:54:36;;;;;;;1.13;0.50;;;14.10;99.90;;;;;;4832153;29;20511;-89
2022/05/31 23:57:07;;;;;;;1.45;0.80;;;14.00;99.90;;;;;;4824541;29;20030;-89
2022/05/31 23:59:33;;;;;;;1.20;0.60;;;14.00;99.90;;;;;;4827500;29;20472;-88
